X  CloseMetar Aviation Weather Data     EFPO Pori Airport

Temperature

8°C Temperature

7°C Dewpoint

93% Humidity



Wind

11 KM/H

 7 MPH

 3 M/S

 6 KTS



160°
South South
East
Current Conditions

Overcast Overcast
Pressure 1002.92 (hPa) - 29.62 (in)
Visibility 6.2 (mi) - 10 (km)
Airport
Airport-code EFPO

Location Pori Airport 56 (km)

Metar:
EFPO 211650Z AUTO 16006KT 9999 OVC003 08/07 Q1003

Time: 21-10-2020 19:50